createdAt,value
2019-05-20T03:42:23.759Z,23.03
2019-05-20T03:44:53.092Z,20.80
2019-05-20T03:47:23.436Z,20.33
2019-05-20T03:49:52.690Z,21.77
2019-05-20T03:52:22.258Z,21.30
2019-05-20T03:54:52.195Z,22.00
2019-05-20T03:57:24.582Z,21.53
2019-05-20T03:59:53.780Z,22.20
2019-05-20T04:02:25.869Z,21.37
2019-05-20T04:05:02.013Z,21.80
2019-05-20T04:07:26.320Z,21.60
2019-05-20T04:09:56.158Z,20.60
2019-05-20T04:12:26.246Z,20.43
2019-05-20T04:14:55.590Z,20.57
2019-05-20T04:17:27.402Z,21.23
2019-05-20T04:19:57.025Z,21.30
2019-05-20T04:22:26.303Z,21.53
2019-05-20T04:24:55.562Z,20.70
2019-05-20T04:27:25.198Z,20.23
2019-05-20T04:29:55.509Z,19.87
2019-05-20T04:32:26.718Z,21.57
2019-05-20T04:34:55.868Z,20.27
2019-05-20T04:37:25.189Z,20.60
2019-05-20T04:39:54.409Z,20.57
2019-05-20T04:42:24.705Z,21.03
2019-05-20T04:44:56.139Z,19.67
2019-05-20T04:47:24.955Z,20.30
2019-05-20T04:49:54.408Z,22.80
2019-05-20T04:52:23.649Z,21.03
2019-05-20T04:54:53.043Z,21.93
2019-05-20T04:57:22.285Z,21.07
2019-05-20T04:59:53.976Z,21.67
2019-05-20T05:02:23.272Z,21.07
2019-05-20T05:04:52.783Z,20.67
2019-05-20T05:07:22.326Z,21.17
2019-05-20T05:09:51.636Z,22.00
2019-05-20T05:12:21.191Z,23.17
2019-05-20T05:14:50.698Z,21.60
2019-05-20T05:17:20.156Z,21.60
2019-05-20T05:19:50.959Z,21.93
2019-05-20T05:22:20.255Z,17.83
2019-05-20T05:24:50.755Z,14.53
2019-05-20T05:27:19.939Z,18.33
2019-05-20T05:29:49.208Z,17.73
2019-05-20T05:32:37.415Z,19.33
2019-05-20T05:35:07.121Z,18.03
2019-05-20T05:37:36.335Z,16.87
2019-05-20T05:40:08.306Z,17.80
2019-05-20T05:42:37.854Z,20.87
2019-05-20T05:45:07.906Z,20.40
2019-05-20T05:47:40.088Z,20.87
2019-05-20T05:50:09.914Z,21.33
2019-05-20T05:52:39.066Z,22.83
2019-05-20T05:55:11.710Z,22.03
2019-05-20T05:57:43.030Z,25.07
2019-05-20T06:02:48.300Z,24.13
2019-05-20T06:05:17.700Z,24.97
2019-05-20T06:07:47.022Z,25.77
2019-05-20T06:10:16.759Z,24.83
2019-05-20T06:12:45.968Z,27.63
2019-05-20T06:15:16.148Z,28.47
2019-05-20T06:17:45.311Z,26.57
2019-05-20T06:20:15.660Z,27.83
2019-05-20T06:22:45.583Z,27.43
2019-05-20T06:25:15.702Z,26.37
2019-05-20T06:27:44.936Z,25.97
2019-05-20T06:30:15.048Z,27.30
2019-05-20T06:32:44.831Z,26.47
2019-05-20T06:35:14.410Z,27.77
2019-05-20T06:37:47.312Z,26.93
2019-05-20T06:40:20.399Z,26.80
2019-05-20T06:42:52.066Z,25.80
2019-05-20T06:45:21.740Z,25.20
2019-05-20T06:47:50.905Z,23.63
2019-05-20T06:50:20.379Z,24.43
2019-05-20T06:52:50.550Z,24.53
2019-05-20T06:55:20.179Z,24.37
2019-05-20T06:57:49.502Z,23.57
2019-05-20T07:00:34.192Z,24.50
2019-05-20T07:03:03.785Z,22.73
2019-05-20T07:05:33.143Z,21.87
2019-05-20T07:08:02.425Z,23.73
2019-05-20T07:10:32.701Z,23.17
2019-05-20T07:13:01.997Z,22.87
2019-05-20T07:15:31.274Z,23.00
2019-05-20T07:18:00.715Z,21.53
2019-05-20T07:20:49.151Z,21.30
2019-05-20T07:23:19.966Z,21.17
2019-05-20T07:25:49.251Z,22.20
2019-05-20T07:28:20.847Z,20.60
2019-05-20T07:30:50.186Z,19.10
2019-05-20T07:33:19.898Z,19.80
2019-05-20T07:35:49.506Z,20.80
2019-05-20T07:38:18.806Z,20.33
2019-05-20T07:40:48.045Z,20.43
2019-05-20T07:43:17.329Z,20.67
2019-05-20T07:45:47.413Z,19.80
2019-05-20T07:48:17.990Z,20.13
2019-05-20T07:50:49.329Z,20.03
2019-05-20T07:53:20.199Z,19.33
2019-05-20T07:56:00.696Z,18.87
2019-05-20T07:58:33.764Z,19.33
2019-05-20T08:01:11.351Z,20.83
2019-05-20T08:03:45.172Z,18.30
2019-05-20T08:06:16.158Z,17.50
2019-05-20T08:08:46.972Z,17.60
2019-05-20T08:11:16.262Z,18.07
2019-05-20T08:13:45.629Z,18.10
2019-05-20T08:16:15.062Z,17.87
2019-05-20T08:18:44.444Z,18.17
2019-05-20T08:21:13.662Z,18.10
2019-05-20T08:23:43.681Z,18.60
2019-05-20T08:26:12.987Z,18.63
2019-05-20T08:28:42.309Z,18.03
2019-05-20T08:31:11.849Z,17.37
2019-05-20T08:33:41.178Z,18.73
2019-05-20T08:36:14.025Z,19.73
2019-05-20T08:38:43.549Z,18.33
2019-05-20T08:41:12.911Z,17.60
2019-05-20T08:43:42.139Z,17.40
2019-05-20T08:46:11.387Z,17.53
2019-05-20T08:48:40.695Z,17.47
2019-05-20T08:51:09.960Z,17.50
2019-05-20T08:53:39.155Z,17.47
2019-05-20T08:56:09.751Z,18.40
2019-05-20T08:58:39.045Z,18.13
2019-05-20T09:01:09.700Z,17.77
2019-05-20T09:03:39.274Z,19.73
2019-05-20T09:06:08.510Z,19.60
2019-05-20T09:08:37.845Z,19.07
2019-05-20T09:11:08.668Z,19.07
2019-05-20T09:13:37.922Z,19.23
2019-05-20T09:16:07.241Z,18.80
2019-05-20T09:18:36.520Z,18.33
2019-05-20T09:21:05.804Z,19.33
2019-05-20T09:23:35.128Z,19.37
2019-05-20T09:26:04.638Z,18.97
2019-05-20T09:28:34.214Z,19.80
2019-05-20T09:31:03.594Z,20.50
2019-05-20T09:33:33.172Z,19.77
2019-05-20T09:36:06.547Z,20.37
2019-05-20T09:38:37.105Z,20.40
2019-05-20T09:41:10.649Z,20.43
2019-05-20T09:43:39.972Z,19.67
2019-05-20T09:46:09.260Z,22.03
2019-05-20T09:48:40.905Z,20.97
2019-05-20T09:51:10.550Z,20.77
2019-05-20T09:53:41.851Z,20.77
2019-05-20T09:56:11.266Z,19.97
2019-05-20T09:58:40.580Z,19.37
2019-05-20T10:01:09.836Z,20.10
2019-05-20T10:03:42.840Z,20.10
2019-05-20T10:06:12.118Z,22.13
2019-05-20T10:08:45.017Z,22.07
2019-05-20T10:11:14.193Z,22.37
2019-05-20T10:13:47.108Z,20.67
2019-05-20T10:16:16.416Z,21.43
2019-05-20T10:18:45.734Z,21.43
2019-05-20T10:21:15.012Z,20.83
2019-05-20T10:23:44.321Z,22.00
2019-05-20T10:26:13.532Z,20.90
2019-05-20T10:28:46.820Z,21.53
2019-05-20T10:31:15.727Z,21.80
2019-05-20T10:33:45.010Z,21.97
2019-05-20T10:36:16.271Z,21.67
2019-05-20T10:38:57.304Z,21.53
2019-05-20T10:41:17.422Z,22.07
2019-05-20T10:43:47.108Z,17.47
2019-05-20T10:46:16.279Z,17.70
2019-05-20T10:48:45.898Z,18.17
2019-05-20T10:51:15.057Z,17.50
2019-05-20T10:53:44.229Z,21.37
2019-05-20T10:56:17.811Z,22.93
2019-05-20T10:58:47.092Z,21.77
2019-05-20T11:01:16.434Z,22.00
2019-05-20T11:03:48.053Z,22.23
2019-05-20T11:06:21.108Z,21.87
2019-05-20T11:08:50.389Z,23.03
2019-05-20T11:11:19.687Z,21.93
2019-05-20T11:13:48.905Z,23.07
2019-05-20T11:16:18.385Z,23.03
2019-05-20T11:18:48.167Z,22.53
2019-05-20T11:21:17.387Z,24.40
2019-05-20T11:23:49.468Z,23.63
2019-05-20T11:26:18.681Z,23.83
2019-05-20T11:28:50.480Z,23.63
2019-05-20T11:31:19.662Z,21.93
2019-05-20T11:33:49.002Z,21.83
2019-05-20T11:36:18.962Z,21.80
2019-05-20T11:38:48.252Z,23.23
2019-05-20T11:41:17.551Z,21.13
2019-05-20T11:43:46.762Z,21.87
2019-05-20T11:46:17.192Z,21.93
2019-05-20T11:48:47.206Z,11.67
2019-05-20T11:51:16.496Z,9.83
2019-05-20T11:53:48.644Z,10.63
2019-05-20T11:56:17.820Z,9.60
2019-05-20T11:58:47.030Z,10.53
2019-05-20T12:01:16.320Z,11.20
2019-05-20T12:03:45.838Z,9.60
2019-05-20T12:06:15.855Z,10.17
2019-05-20T12:08:45.201Z,11.03
2019-05-20T12:11:14.470Z,11.77
2019-05-20T12:13:43.705Z,12.57
2019-05-20T12:16:13.054Z,12.53
2019-05-20T12:18:45.232Z,12.57
2019-05-20T12:21:14.858Z,12.17
2019-05-20T12:23:44.124Z,10.80
2019-05-20T12:26:16.178Z,9.20
2019-05-20T12:28:45.530Z,8.40
2019-05-20T12:31:14.934Z,8.70
2019-05-20T12:33:45.339Z,8.43
2019-05-20T12:36:14.674Z,8.07
2019-05-20T12:38:44.000Z,7.30
2019-05-20T12:41:13.218Z,6.63
2019-05-20T12:43:44.994Z,6.60
2019-05-20T12:46:13.438Z,7.03
2019-05-20T12:48:42.665Z,7.70
2019-05-20T12:51:14.536Z,7.30
2019-05-20T12:53:44.783Z,8.10
2019-05-20T12:56:14.091Z,7.67
2019-05-20T12:58:43.380Z,8.57
2019-05-20T13:01:12.859Z,9.47
2019-05-20T13:03:44.399Z,8.73
2019-05-20T13:06:13.957Z,13.63
2019-05-20T13:08:43.292Z,12.13
2019-05-20T13:11:12.756Z,12.87
2019-05-20T13:13:41.968Z,15.63
2019-05-20T13:16:12.841Z,15.53
2019-05-20T13:18:54.902Z,15.70
2019-05-20T13:21:13.232Z,15.80
2019-05-20T13:23:42.687Z,16.20
2019-05-20T13:26:11.904Z,14.70
2019-05-20T13:28:41.312Z,13.80
2019-05-20T13:31:11.272Z,13.20
2019-05-20T13:33:42.041Z,13.10
2019-05-20T13:36:14.960Z,13.17
2019-05-20T13:38:44.091Z,13.33
2019-05-20T13:41:13.419Z,13.70
2019-05-20T13:43:42.948Z,13.10
2019-05-20T13:46:12.804Z,13.23
2019-05-20T13:48:42.185Z,12.20
2019-05-20T13:51:12.062Z,13.03
2019-05-20T13:53:41.567Z,13.10
2019-05-20T13:56:10.747Z,13.00
2019-05-20T13:58:40.051Z,13.23
2019-05-20T14:01:09.207Z,11.57
2019-05-20T14:03:38.532Z,11.50
2019-05-20T14:06:08.765Z,10.40
2019-05-20T14:08:37.952Z,10.97
2019-05-20T14:11:07.381Z,11.37
2019-05-20T14:13:36.566Z,11.57
2019-05-20T14:16:05.865Z,11.07
2019-05-20T14:18:38.330Z,11.63
2019-05-20T14:21:07.620Z,9.80
2019-05-20T14:23:36.870Z,9.10
2019-05-20T14:26:06.088Z,8.80
2019-05-20T14:28:35.578Z,8.37
2019-05-20T14:31:06.069Z,8.17
2019-05-20T14:33:35.867Z,7.83
2019-05-20T14:36:05.304Z,8.17
2019-05-20T14:38:39.612Z,8.30
2019-05-20T14:41:20.849Z,8.43
2019-05-20T14:43:39.837Z,7.50
2019-05-20T14:46:09.395Z,7.83
2019-05-20T14:48:39.048Z,8.07
2019-05-20T14:51:08.339Z,8.63
2019-05-20T14:53:37.534Z,8.50
2019-05-20T14:56:06.875Z,8.60
2019-05-20T14:58:36.118Z,9.43
2019-05-20T15:01:05.348Z,9.70
2019-05-20T15:03:34.695Z,10.07
2019-05-20T15:06:06.035Z,10.27
2019-05-20T15:08:35.385Z,11.00
2019-05-20T15:11:05.100Z,12.10
2019-05-20T15:13:34.453Z,11.60
2019-05-20T15:16:03.777Z,12.77
2019-05-20T15:18:36.552Z,12.63
2019-05-20T15:21:06.028Z,13.47
2019-05-20T15:23:35.691Z,13.40
2019-05-20T15:26:04.989Z,12.17
2019-05-20T15:28:34.285Z,10.90
2019-05-20T15:31:03.566Z,11.20
2019-05-20T15:33:32.837Z,9.83
2019-05-20T15:36:02.114Z,10.47
2019-05-20T15:38:31.781Z,9.70
2019-05-20T15:41:01.185Z,9.67
2019-05-20T15:43:30.439Z,8.83
2019-05-20T15:46:00.354Z,8.60
2019-05-20T15:48:35.520Z,8.70
2019-05-20T15:51:04.709Z,8.10
2019-05-20T15:53:34.042Z,8.83
2019-05-20T15:56:03.369Z,9.00
2019-05-20T15:58:32.674Z,8.63
2019-05-20T16:01:04.522Z,8.63
2019-05-20T16:03:33.961Z,9.07
2019-05-20T16:06:05.981Z,8.97
2019-05-20T16:08:35.913Z,9.53
2019-05-20T16:11:06.938Z,9.60
2019-05-20T16:13:36.817Z,10.53
2019-05-20T16:16:13.137Z,12.73
2019-05-20T16:18:42.520Z,11.33
2019-05-20T16:21:11.731Z,9.47
2019-05-20T16:23:41.058Z,9.30
2019-05-20T16:26:10.338Z,8.67
2019-05-20T16:28:39.585Z,9.43
2019-05-20T16:31:09.164Z,9.57
2019-05-20T16:33:38.501Z,9.80
2019-05-20T16:36:07.864Z,10.77
2019-05-20T16:38:37.258Z,10.60
2019-05-20T16:41:07.043Z,10.90
2019-05-20T16:43:36.366Z,11.00
2019-05-20T16:46:07.441Z,11.10
2019-05-20T16:48:36.858Z,11.40
2019-05-20T16:51:06.063Z,10.80
2019-05-20T16:53:35.401Z,11.30
2019-05-20T16:56:05.114Z,11.00
2019-05-20T16:58:34.423Z,11.83
2019-05-20T17:01:06.413Z,12.10
2019-05-20T17:03:35.711Z,12.60
2019-05-20T17:06:04.986Z,12.10
2019-05-20T17:08:34.230Z,12.37
2019-05-20T17:11:03.654Z,12.40
2019-05-20T17:13:32.932Z,13.10
2019-05-20T17:16:02.233Z,12.07
2019-05-20T17:18:32.055Z,9.93
2019-05-20T17:21:01.343Z,10.90
2019-05-20T17:23:33.094Z,10.53
2019-05-20T17:26:02.567Z,8.77
2019-05-20T17:28:31.891Z,7.93
2019-05-20T17:31:01.066Z,9.10
2019-05-20T17:33:30.564Z,10.57
2019-05-20T17:36:00.934Z,11.17
2019-05-20T17:38:30.232Z,12.80
2019-05-20T17:40:59.792Z,14.57
2019-05-20T17:43:29.105Z,16.80
2019-05-20T17:45:58.425Z,19.67
2019-05-20T17:48:28.177Z,22.70
2019-05-20T17:50:57.808Z,23.07
2019-05-20T17:53:27.027Z,24.13
2019-05-20T17:55:56.244Z,25.67
2019-05-20T17:58:25.563Z,25.03
2019-05-20T18:00:54.860Z,24.83
2019-05-20T18:03:25.722Z,26.30
2019-05-20T18:05:55.147Z,27.53
2019-05-20T18:08:26.723Z,26.90
2019-05-20T18:10:56.204Z,24.93
2019-05-20T18:13:25.556Z,25.80
2019-05-20T18:15:54.928Z,23.83
2019-05-20T18:18:24.118Z,25.17
2019-05-20T18:20:56.405Z,25.50
2019-05-20T18:23:24.506Z,26.27
2019-05-20T18:25:54.177Z,26.87
2019-05-20T18:28:23.511Z,26.57
2019-05-20T18:30:52.826Z,26.20
2019-05-20T18:33:22.756Z,26.07
2019-05-20T18:35:52.017Z,26.27
2019-05-20T18:38:21.427Z,27.27
2019-05-20T18:40:51.161Z,28.60
2019-05-20T18:43:20.645Z,25.97
2019-05-20T18:45:49.956Z,28.20
2019-05-20T18:48:22.130Z,26.53
2019-05-20T18:50:51.497Z,29.10
2019-05-20T18:53:20.828Z,25.83
2019-05-20T18:55:50.102Z,22.93
2019-05-20T18:58:20.712Z,23.97
2019-05-20T19:00:50.016Z,21.43
2019-05-20T19:03:20.043Z,19.67
2019-05-20T19:05:49.967Z,19.40
2019-05-20T19:08:19.665Z,18.33
2019-05-20T19:10:51.678Z,19.57
2019-05-20T19:13:21.377Z,17.07
2019-05-20T19:15:50.659Z,14.23
2019-05-20T19:18:21.004Z,13.77
2019-05-20T19:20:50.378Z,13.70
2019-05-20T19:23:21.336Z,14.63
2019-05-20T19:25:50.659Z,16.60
2019-05-20T19:28:22.305Z,17.93
2019-05-20T19:30:53.739Z,20.80
2019-05-20T19:33:23.039Z,21.47
2019-05-20T19:35:52.285Z,24.20
2019-05-20T19:38:23.482Z,25.03
2019-05-20T19:40:52.852Z,26.30
2019-05-20T19:43:22.172Z,28.20
2019-05-20T19:45:51.492Z,25.33
2019-05-20T19:48:20.839Z,23.87
2019-05-20T19:50:51.419Z,21.57
2019-05-20T19:53:22.115Z,20.90
2019-05-20T19:55:54.990Z,19.30
2019-05-20T19:58:24.267Z,18.47
2019-05-20T20:00:56.686Z,17.40
2019-05-20T20:03:25.726Z,17.83
2019-05-20T20:05:55.516Z,18.97
2019-05-20T20:08:24.918Z,17.23
2019-05-20T20:10:54.595Z,15.00
2019-05-20T20:13:23.841Z,15.23
2019-05-20T20:15:55.558Z,12.27
2019-05-20T20:18:24.825Z,10.40
2019-05-20T20:20:54.144Z,10.13
2019-05-20T20:23:23.454Z,10.93
2019-05-20T20:25:52.740Z,11.93
2019-05-20T20:28:21.999Z,12.83
2019-05-20T20:30:53.081Z,13.80
2019-05-20T20:33:22.418Z,13.47
2019-05-20T20:35:51.636Z,13.77
2019-05-20T20:38:20.889Z,11.40
2019-05-20T20:40:50.067Z,11.23
2019-05-20T20:43:21.815Z,10.70
2019-05-20T20:45:50.997Z,9.70
2019-05-20T20:48:20.294Z,10.10
2019-05-20T20:50:52.537Z,9.20
2019-05-20T20:53:21.764Z,8.87
2019-05-20T20:55:51.042Z,9.60
2019-05-20T20:58:21.773Z,9.00
2019-05-20T21:00:51.200Z,9.70
2019-05-20T21:03:20.470Z,9.10
2019-05-20T21:05:49.744Z,9.90
2019-05-20T21:08:19.469Z,9.37
2019-05-20T21:10:49.010Z,9.53
2019-05-20T21:13:19.493Z,9.97
2019-05-20T21:15:48.753Z,10.00
2019-05-20T21:18:18.056Z,9.80
2019-05-20T21:20:47.306Z,10.33
2019-05-20T21:23:16.594Z,9.57
2019-05-20T21:25:45.850Z,9.40
2019-05-20T21:28:15.170Z,9.63
2019-05-20T21:30:44.649Z,8.77
2019-05-20T21:33:14.123Z,8.23
2019-05-20T21:35:45.300Z,6.40
2019-05-20T21:38:14.421Z,6.57
2019-05-20T21:40:43.616Z,6.27
2019-05-20T21:43:12.819Z,6.30
2019-05-20T21:45:42.005Z,6.07
2019-05-20T21:48:11.199Z,6.23
2019-05-20T21:50:47.414Z,6.03
2019-05-20T21:53:16.662Z,5.90
2019-05-20T21:55:45.894Z,6.20
2019-05-20T21:58:15.193Z,6.80
